Time;durP1;ratioP1;P1;durP2;ratioP2;P2;SDS_P1;SDS_P2;PMS_P1;PMS_P2;Temp;Humidity;BMP_temperature;BMP_pressure;BME280_temperature;BME280_humidity;BME280_pressure;Samples;Min_cycle;Max_cycle;Signal;HPM_P1;HPM_P2
2022/09/16 00:00:04;;;;;;;10.35;1.60;;;;;;;;;;5052679;28;20053;-79
2022/09/16 00:02:30;;;;;;;5.47;1.15;;;;;;;;;;5055165;28;20091;-79
2022/09/16 00:04:57;;;;;;;7.50;1.42;;;;;;;;;;5054957;28;20044;-80
2022/09/16 00:07:25;;;;;;;4.90;1.80;;;;;;;;;;5055017;28;20084;-80
2022/09/16 00:09:52;;;;;;;4.63;1.60;;;;;;;;;;5053334;28;20080;-79
2022/09/16 00:12:18;;;;;;;6.55;1.42;;;;;;;;;;5053355;28;20108;-79
2022/09/16 00:14:47;;;;;;;5.70;1.35;;;;;;;;;;5055436;28;20064;-80
2022/09/16 00:17:14;;;;;;;6.72;1.55;;;;;;;;;;5055346;28;20049;-80
2022/09/16 00:19:40;;;;;;;7.50;1.38;;;;;;;;;;5053093;28;20056;-80
2022/09/16 00:22:06;;;;;;;5.57;1.77;;;;;;;;;;5056689;28;20072;-80
2022/09/16 00:24:33;;;;;;;7.70;1.80;;;;;;;;;;5055045;28;20045;-81
2022/09/16 00:26:59;;;;;;;11.15;1.85;;;;;;;;;;5054395;28;20049;-80
2022/09/16 00:29:26;;;;;;;5.80;1.42;;;;;;;;;;5050799;28;20093;-80
2022/09/16 00:31:52;;;;;;;10.23;1.85;;;;;;;;;;5053429;28;20063;-79
2022/09/16 00:34:18;;;;;;;8.00;2.33;;;;;;;;;;5052860;28;20049;-80
2022/09/16 00:36:45;;;;;;;5.85;1.63;;;;;;;;;;5054022;28;20087;-80
2022/09/16 00:39:11;;;;;;;6.70;2.00;;;;;;;;;;5051846;28;20053;-79
2022/09/16 00:41:38;;;;;;;8.27;1.77;;;;;;;;;;5052927;28;20064;-81
2022/09/16 00:44:05;;;;;;;5.35;1.85;;;;;;;;;;5052417;28;20057;-80
2022/09/16 00:46:49;;;;;;;5.28;1.60;;;;;;;;;;5053764;28;20300;-80
2022/09/16 00:49:19;;;;;;;7.00;2.05;;;;;;;;;;5052198;28;20055;-79
2022/09/16 00:51:48;;;;;;;4.63;1.88;;;;;;;;;;5053356;28;20060;-80
2022/09/16 00:54:16;;;;;;;4.60;1.60;;;;;;;;;;5053034;28;20542;-80
2022/09/16 00:56:43;;;;;;;12.60;2.05;;;;;;;;;;5054105;28;20757;-79
2022/09/16 00:59:09;;;;;;;6.70;1.85;;;;;;;;;;5053353;28;20049;-80
2022/09/16 01:01:37;;;;;;;8.00;1.85;;;;;;;;;;5052900;28;20049;-80
2022/09/16 01:04:11;;;;;;;3.90;1.45;;;;;;;;;;5050438;28;20051;-79
2022/09/16 01:06:38;;;;;;;7.85;1.85;;;;;;;;;;5052847;28;20132;-79
2022/09/16 01:09:05;;;;;;;5.65;1.98;;;;;;;;;;5051385;28;20520;-81
2022/09/16 01:11:31;;;;;;;13.32;2.03;;;;;;;;;;5052662;28;20063;-78
2022/09/16 01:14:51;;;;;;;8.30;1.83;;;;;;;;;;5052593;28;20055;-81
2022/09/16 01:16:49;;;;;;;9.48;1.88;;;;;;;;;;5053646;28;20143;-80
2022/09/16 01:19:27;;;;;;;4.93;1.70;;;;;;;;;;5052213;28;20041;-80
2022/09/16 01:21:54;;;;;;;6.93;2.00;;;;;;;;;;5054339;28;20056;-80
2022/09/16 01:24:39;;;;;;;9.95;1.88;;;;;;;;;;5061163;28;20049;-79
2022/09/16 01:27:29;;;;;;;5.87;1.80;;;;;;;;;;5049545;28;20065;-80
2022/09/16 01:30:01;;;;;;;7.80;2.13;;;;;;;;;;5029004;28;20429;-80
2022/09/16 01:32:28;;;;;;;6.28;2.08;;;;;;;;;;5033933;28;20056;-80
2022/09/16 01:34:57;;;;;;;7.68;2.15;;;;;;;;;;5031705;28;20049;-76
2022/09/16 01:37:23;;;;;;;6.47;1.60;;;;;;;;;;5031884;28;20136;-77
2022/09/16 01:40:02;;;;;;;9.75;2.58;;;;;;;;;;5030442;28;20068;-79
2022/09/16 01:42:40;;;;;;;6.22;2.00;;;;;;;;;;5030336;28;20053;-78
2022/09/16 01:45:17;;;;;;;8.85;2.03;;;;;;;;;;5031626;28;20042;-79
2022/09/16 01:47:50;;;;;;;5.30;1.95;;;;;;;;;;5031614;28;20092;-79
2022/09/16 01:50:16;;;;;;;5.28;1.90;;;;;;;;;;5030143;28;20049;-80
2022/09/16 01:52:57;;;;;;;5.55;2.15;;;;;;;;;;5032535;28;20140;-78
2022/09/16 01:55:35;;;;;;;7.63;1.77;;;;;;;;;;5032419;28;20132;-80
2022/09/16 01:58:22;;;;;;;8.77;2.30;;;;;;;;;;5030691;28;20053;-79
2022/09/16 02:00:50;;;;;;;5.95;2.10;;;;;;;;;;5031049;28;20055;-79
2022/09/16 02:03:24;;;;;;;6.50;1.95;;;;;;;;;;5031039;28;20064;-79
2022/09/16 02:05:58;;;;;;;7.28;1.95;;;;;;;;;;5033357;28;20049;-78
2022/09/16 02:08:45;;;;;;;6.53;1.90;;;;;;;;;;5032156;28;20152;-80
2022/09/16 02:11:13;;;;;;;6.15;1.92;;;;;;;;;;5035689;28;20064;-79
2022/09/16 02:13:41;;;;;;;5.55;1.88;;;;;;;;;;5034628;28;20057;-78
2022/09/16 02:16:14;;;;;;;4.30;1.90;;;;;;;;;;5036313;28;20068;-80
2022/09/16 02:18:41;;;;;;;7.00;1.83;;;;;;;;;;5033501;28;20049;-79
2022/09/16 02:21:10;;;;;;;9.68;1.98;;;;;;;;;;5036082;28;20522;-79
2022/09/16 02:23:38;;;;;;;4.45;1.65;;;;;;;;;;5034268;28;20060;-80
2022/09/16 02:26:07;;;;;;;4.63;2.03;;;;;;;;;;5035117;28;20577;-80
2022/09/16 02:28:35;;;;;;;6.32;2.35;;;;;;;;;;5033226;28;20683;-80
2022/09/16 02:31:04;;;;;;;4.57;2.08;;;;;;;;;;5043983;28;20048;-80
2022/09/16 02:33:41;;;;;;;9.30;2.17;;;;;;;;;;5055351;28;20121;-79
2022/09/16 02:36:07;;;;;;;4.97;1.95;;;;;;;;;;5052801;28;20086;-80
2022/09/16 02:38:39;;;;;;;7.72;1.85;;;;;;;;;;5037676;28;20055;-77
2022/09/16 02:41:05;;;;;;;5.88;2.00;;;;;;;;;;5036597;28;20049;-80
2022/09/16 02:43:32;;;;;;;5.70;1.80;;;;;;;;;;5034911;28;20057;-78
2022/09/16 02:46:07;;;;;;;3.92;1.98;;;;;;;;;;5036674;28;20049;-79
2022/09/16 02:48:45;;;;;;;8.82;2.20;;;;;;;;;;5030058;28;20049;-78
2022/09/16 02:51:11;;;;;;;5.25;1.90;;;;;;;;;;5035828;28;20049;-79
2022/09/16 02:53:45;;;;;;;4.53;1.80;;;;;;;;;;5034902;28;20116;-79
2022/09/16 02:56:31;;;;;;;8.73;2.13;;;;;;;;;;5034435;28;20057;-78
2022/09/16 02:58:57;;;;;;;8.50;2.20;;;;;;;;;;5033472;28;20053;-79
2022/09/16 03:01:24;;;;;;;9.75;1.90;;;;;;;;;;5036106;28;20049;-80
2022/09/16 03:03:54;;;;;;;6.57;1.77;;;;;;;;;;5035309;28;20411;-79
2022/09/16 03:06:24;;;;;;;5.82;1.83;;;;;;;;;;5035502;28;20056;-79
2022/09/16 03:08:52;;;;;;;4.60;1.80;;;;;;;;;;5034747;28;20057;-80
2022/09/16 03:11:19;;;;;;;4.07;1.58;;;;;;;;;;5036365;28;20077;-80
2022/09/16 03:14:02;;;;;;;4.25;1.75;;;;;;;;;;5035460;28;20065;-80
2022/09/16 03:16:35;;;;;;;6.72;1.65;;;;;;;;;;5036379;28;20049;-80
2022/09/16 03:19:20;;;;;;;7.47;1.65;;;;;;;;;;5034865;28;20060;-79
2022/09/16 03:22:01;;;;;;;5.47;1.67;;;;;;;;;;5035949;28;20124;-80
2022/09/16 03:24:41;;;;;;;4.90;1.65;;;;;;;;;;5033300;28;20084;-80
2022/09/16 03:27:10;;;;;;;3.33;1.35;;;;;;;;;;5035048;28;20132;-80
2022/09/16 03:29:37;;;;;;;5.50;1.48;;;;;;;;;;5034004;28;20148;-81
2022/09/16 03:32:17;;;;;;;7.68;1.42;;;;;;;;;;5045189;28;20053;-79
2022/09/16 03:34:47;;;;;;;5.80;1.40;;;;;;;;;;5053943;28;20612;-79
2022/09/16 03:37:15;;;;;;;2.42;1.33;;;;;;;;;;5056405;28;20521;-80
2022/09/16 03:39:46;;;;;;;8.73;1.50;;;;;;;;;;5058349;28;20055;-79
2022/09/16 03:42:13;;;;;;;9.10;1.60;;;;;;;;;;5071221;28;20113;-79
2022/09/16 03:44:39;;;;;;;5.97;1.63;;;;;;;;;;5058015;28;20045;-79
2022/09/16 03:47:06;;;;;;;5.03;1.27;;;;;;;;;;5053134;28;20049;-79
2022/09/16 03:49:33;;;;;;;5.97;1.65;;;;;;;;;;5052559;28;20057;-79
2022/09/16 03:52:00;;;;;;;6.80;1.80;;;;;;;;;;5054040;28;20059;-80
2022/09/16 03:54:26;;;;;;;5.35;1.70;;;;;;;;;;5050983;28;20571;-79
2022/09/16 03:56:53;;;;;;;7.78;1.58;;;;;;;;;;5053415;28;20057;-78
2022/09/16 03:59:19;;;;;;;5.60;1.52;;;;;;;;;;5051410;28;20052;-79
2022/09/16 04:01:46;;;;;;;5.60;1.65;;;;;;;;;;5051965;28;20057;-80
2022/09/16 04:04:12;;;;;;;6.53;1.70;;;;;;;;;;5052336;28;20101;-79
2022/09/16 04:06:39;;;;;;;6.22;1.48;;;;;;;;;;5053680;28;20624;-79
2022/09/16 04:09:06;;;;;;;7.80;1.88;;;;;;;;;;5051132;28;20049;-79
2022/09/16 04:11:33;;;;;;;6.00;1.70;;;;;;;;;;5051524;28;20057;-79
2022/09/16 04:14:00;;;;;;;4.25;1.60;;;;;;;;;;5051009;28;20053;-81
2022/09/16 04:16:26;;;;;;;5.38;1.83;;;;;;;;;;5057993;28;20498;-79
2022/09/16 04:18:53;;;;;;;4.38;1.75;;;;;;;;;;5056813;28;20087;-80
2022/09/16 04:21:19;;;;;;;6.38;1.52;;;;;;;;;;5058167;28;20055;-80
2022/09/16 04:23:47;;;;;;;5.80;1.30;;;;;;;;;;5058809;28;20051;-80
2022/09/16 04:26:14;;;;;;;4.25;1.48;;;;;;;;;;5058437;28;20095;-81
2022/09/16 04:28:40;;;;;;;5.78;1.60;;;;;;;;;;5058106;28;20041;-81
2022/09/16 04:31:09;;;;;;;4.53;1.60;;;;;;;;;;5060904;28;20052;-81
2022/09/16 04:33:35;;;;;;;5.20;1.80;;;;;;;;;;5057472;28;20045;-82
2022/09/16 04:36:02;;;;;;;5.88;1.85;;;;;;;;;;5060391;28;20690;-84
2022/09/16 04:38:28;;;;;;;11.07;1.92;;;;;;;;;;5062461;28;20088;-82
2022/09/16 04:40:59;;;;;;;3.28;1.58;;;;;;;;;;5063983;28;20068;-82
2022/09/16 04:43:26;;;;;;;4.60;1.52;;;;;;;;;;5063249;28;20048;-83
2022/09/16 04:45:53;;;;;;;3.78;1.55;;;;;;;;;;5066728;28;20041;-83
2022/09/16 04:48:19;;;;;;;7.82;1.70;;;;;;;;;;5067359;28;20146;-82
2022/09/16 04:50:46;;;;;;;6.05;1.70;;;;;;;;;;5067963;28;20061;-81
2022/09/16 04:53:12;;;;;;;5.32;1.60;;;;;;;;;;5069179;28;20053;-81
2022/09/16 04:55:39;;;;;;;3.53;1.60;;;;;;;;;;5069630;28;20112;-83
2022/09/16 04:58:06;;;;;;;6.65;1.67;;;;;;;;;;5068409;28;20056;-81
2022/09/16 05:00:32;;;;;;;7.38;1.80;;;;;;;;;;5067402;28;20041;-81
2022/09/16 05:03:02;;;;;;;4.45;1.60;;;;;;;;;;5069392;28;20049;-82
2022/09/16 05:05:28;;;;;;;9.43;1.90;;;;;;;;;;5068294;28;20051;-82
2022/09/16 05:07:55;;;;;;;7.63;2.60;;;;;;;;;;5059094;28;20646;-80
2022/09/16 05:10:21;;;;;;;6.13;1.70;;;;;;;;;;5057356;28;20059;-81
2022/09/16 05:12:51;;;;;;;2.70;1.40;;;;;;;;;;5056435;28;20055;-82
2022/09/16 05:15:18;;;;;;;4.25;1.90;;;;;;;;;;5059207;28;20059;-81
2022/09/16 05:17:45;;;;;;;6.32;1.67;;;;;;;;;;5059113;28;20052;-80
2022/09/16 05:20:17;;;;;;;2.92;1.55;;;;;;;;;;5060544;28;20047;-79
2022/09/16 05:22:43;;;;;;;6.25;1.50;;;;;;;;;;5061826;28;20501;-81
2022/09/16 05:25:09;;;;;;;3.10;1.40;;;;;;;;;;5050405;28;20513;-82
2022/09/16 05:27:36;;;;;;;4.43;1.60;;;;;;;;;;5055390;28;20049;-81
2022/09/16 05:30:02;;;;;;;5.03;1.70;;;;;;;;;;5057353;28;20112;-83
2022/09/16 05:32:29;;;;;;;6.00;2.00;;;;;;;;;;5057455;28;20077;-80
2022/09/16 05:34:56;;;;;;;6.55;1.48;;;;;;;;;;5052715;28;20117;-79
2022/09/16 05:37:22;;;;;;;3.38;1.60;;;;;;;;;;5063187;28;20159;-80
2022/09/16 05:39:49;;;;;;;6.63;1.63;;;;;;;;;;5057900;28;20052;-81
2022/09/16 05:42:15;;;;;;;6.45;2.30;;;;;;;;;;5058669;28;20048;-80
2022/09/16 05:44:41;;;;;;;7.97;1.45;;;;;;;;;;5056141;28;20104;-80
2022/09/16 05:47:08;;;;;;;4.53;1.55;;;;;;;;;;5056764;28;20043;-80
2022/09/16 05:49:34;;;;;;;7.75;1.55;;;;;;;;;;5056787;28;20057;-81
2022/09/16 05:52:01;;;;;;;8.82;1.98;;;;;;;;;;5054240;28;20144;-80
2022/09/16 05:54:27;;;;;;;5.60;1.48;;;;;;;;;;5061197;28;20148;-83
2022/09/16 05:56:54;;;;;;;7.68;1.50;;;;;;;;;;5064523;28;20061;-79
2022/09/16 05:59:22;;;;;;;2.20;1.10;;;;;;;;;;5055171;28;20069;-79
2022/09/16 06:01:49;;;;;;;5.18;1.38;;;;;;;;;;5046473;28;20084;-79
2022/09/16 06:04:15;;;;;;;5.40;1.60;;;;;;;;;;5047025;28;20574;-79
2022/09/16 06:06:43;;;;;;;2.83;1.13;;;;;;;;;;5053726;28;20104;-80
2022/09/16 06:09:11;;;;;;;8.55;1.17;;;;;;;;;;5050491;28;20049;-77
2022/09/16 06:11:41;;;;;;;5.80;1.38;;;;;;;;;;5052820;28;20430;-80
2022/09/16 06:14:08;;;;;;;3.63;1.02;;;;;;;;;;5053296;28;20059;-81
2022/09/16 06:16:36;;;;;;;3.05;1.13;;;;;;;;;;5054878;28;20055;-81
2022/09/16 06:19:04;;;;;;;4.22;1.30;;;;;;;;;;5054973;28;20136;-81
2022/09/16 06:21:30;;;;;;;6.30;1.08;;;;;;;;;;5056485;28;20112;-81
2022/09/16 06:23:56;;;;;;;3.55;0.98;;;;;;;;;;5052862;28;20064;-82
2022/09/16 06:26:24;;;;;;;6.28;1.05;;;;;;;;;;5057670;28;20052;-81
2022/09/16 06:28:51;;;;;;;6.18;0.98;;;;;;;;;;5053957;28;20049;-80
2022/09/16 06:31:18;;;;;;;5.55;1.02;;;;;;;;;;5056274;28;20059;-80
2022/09/16 06:33:44;;;;;;;9.15;1.08;;;;;;;;;;5052621;28;20401;-79
2022/09/16 06:36:16;;;;;;;5.03;1.00;;;;;;;;;;5059661;28;20080;-79
2022/09/16 06:38:43;;;;;;;4.43;1.00;;;;;;;;;;5055276;28;20063;-80
2022/09/16 06:41:10;;;;;;;2.33;0.80;;;;;;;;;;5058765;28;20041;-81
2022/09/16 06:43:37;;;;;;;5.38;0.90;;;;;;;;;;5057811;28;20041;-80
2022/09/16 06:46:09;;;;;;;5.47;1.08;;;;;;;;;;5058653;28;20055;-81
2022/09/16 06:48:35;;;;;;;7.10;1.25;;;;;;;;;;5054518;28;20049;-80
2022/09/16 06:51:03;;;;;;;9.35;1.00;;;;;;;;;;5059134;28;20053;-82
2022/09/16 06:53:30;;;;;;;5.57;0.80;;;;;;;;;;5054717;28;20076;-81
2022/09/16 06:56:04;;;;;;;3.58;0.77;;;;;;;;;;5059149;28;20081;-80
2022/09/16 06:58:31;;;;;;;4.10;0.77;;;;;;;;;;5060158;28;20089;-81
2022/09/16 07:00:58;;;;;;;5.70;0.95;;;;;;;;;;5061913;28;20531;-80
2022/09/16 07:03:24;;;;;;;6.88;0.93;;;;;;;;;;5059542;28;20060;-80
2022/09/16 07:05:59;;;;;;;5.20;1.10;;;;;;;;;;5060081;28;20051;-81
2022/09/16 07:08:26;;;;;;;2.63;0.90;;;;;;;;;;5057295;28;20053;-79
2022/09/16 07:10:57;;;;;;;2.78;0.80;;;;;;;;;;5058352;28;20136;-80
2022/09/16 07:13:23;;;;;;;4.15;0.90;;;;;;;;;;5058719;28;20136;-81
2022/09/16 07:15:50;;;;;;;4.65;0.95;;;;;;;;;;5059752;28;20076;-81
2022/09/16 07:18:36;;;;;;;4.72;1.00;;;;;;;;;;5058084;28;20056;-81
2022/09/16 07:21:10;;;;;;;5.10;0.85;;;;;;;;;;5057605;28;20045;-80
2022/09/16 07:23:37;;;;;;;2.50;0.70;;;;;;;;;;5057647;28;20045;-81
2022/09/16 07:26:11;;;;;;;4.22;0.98;;;;;;;;;;5059248;28;20045;-80
2022/09/16 07:28:38;;;;;;;5.75;1.08;;;;;;;;;;5057039;28;20048;-79
2022/09/16 07:31:05;;;;;;;5.57;1.20;;;;;;;;;;5058354;28;20049;-81
2022/09/16 07:33:36;;;;;;;6.38;1.33;;;;;;;;;;5058697;28;20053;-80
2022/09/16 07:36:04;;;;;;;6.32;1.42;;;;;;;;;;5058499;28;20079;-80
2022/09/16 07:38:31;;;;;;;7.45;1.40;;;;;;;;;;5056487;28;20055;-81
2022/09/16 07:41:24;;;;;;;7.95;1.52;;;;;;;;;;5055190;28;20045;-81
2022/09/16 07:43:52;;;;;;;5.95;1.67;;;;;;;;;;5057945;28;20148;-82
2022/09/16 07:46:19;;;;;;;3.55;1.30;;;;;;;;;;5056286;28;20191;-81
2022/09/16 07:48:46;;;;;;;5.32;1.20;;;;;;;;;;5056192;28;20052;-81
2022/09/16 07:51:15;;;;;;;6.07;1.50;;;;;;;;;;5058651;28;20072;-80
2022/09/16 07:53:42;;;;;;;2.97;1.25;;;;;;;;;;5057970;28;20079;-81
2022/09/16 07:56:13;;;;;;;8.20;1.33;;;;;;;;;;5057217;28;20111;-80
2022/09/16 07:58:41;;;;;;;5.95;1.10;;;;;;;;;;5058671;28;20079;-83
2022/09/16 08:01:07;;;;;;;5.78;1.70;;;;;;;;;;5059188;28;20076;-79
2022/09/16 08:03:34;;;;;;;3.50;0.90;;;;;;;;;;5059561;28;20041;-79
2022/09/16 08:06:05;;;;;;;2.88;1.15;;;;;;;;;;5059047;28;20079;-81
2022/09/16 08:08:32;;;;;;;6.15;1.30;;;;;;;;;;5057846;28;20045;-82
2022/09/16 08:10:59;;;;;;;3.10;1.17;;;;;;;;;;5058285;28;20062;-81
2022/09/16 08:13:28;;;;;;;7.65;1.45;;;;;;;;;;5064710;28;20106;-80
2022/09/16 08:15:54;;;;;;;4.55;1.15;;;;;;;;;;5066972;28;20081;-81
2022/09/16 08:18:21;;;;;;;4.95;1.27;;;;;;;;;;5056166;28;20060;-82
2022/09/16 08:20:47;;;;;;;5.38;1.50;;;;;;;;;;5058052;28;20049;-81
2022/09/16 08:23:14;;;;;;;8.48;1.55;;;;;;;;;;5057511;28;20053;-82
2022/09/16 08:25:43;;;;;;;3.65;1.00;;;;;;;;;;5055962;28;20044;-82
2022/09/16 08:28:13;;;;;;;4.50;1.10;;;;;;;;;;5057039;28;20063;-81
2022/09/16 08:30:40;;;;;;;5.57;1.00;;;;;;;;;;5056741;28;20490;-78
2022/09/16 08:33:06;;;;;;;3.38;0.93;;;;;;;;;;5056240;28;20041;-80
2022/09/16 08:35:33;;;;;;;3.67;1.10;;;;;;;;;;5056491;28;20049;-81
2022/09/16 08:38:00;;;;;;;2.70;0.90;;;;;;;;;;5056275;28;20120;-81
2022/09/16 08:40:31;;;;;;;4.93;1.13;;;;;;;;;;5055528;28;20049;-81
2022/09/16 08:43:11;;;;;;;3.17;1.00;;;;;;;;;;5056232;28;20056;-80
2022/09/16 08:45:40;;;;;;;8.52;1.13;;;;;;;;;;5056928;28;20071;-79
2022/09/16 08:48:13;;;;;;;3.60;1.38;;;;;;;;;;5055616;28;20065;-81
2022/09/16 08:50:41;;;;;;;4.50;1.10;;;;;;;;;;5058136;28;20148;-82
2022/09/16 08:53:14;;;;;;;3.47;1.40;;;;;;;;;;5059342;28;20045;-81
2022/09/16 08:55:45;;;;;;;3.10;1.17;;;;;;;;;;5059598;28;20044;-81
2022/09/16 08:58:14;;;;;;;2.20;1.17;;;;;;;;;;5057979;28;20390;-80
2022/09/16 09:00:46;;;;;;;3.38;1.10;;;;;;;;;;5057739;28;20525;-81
2022/09/16 09:03:31;;;;;;;2.50;1.08;;;;;;;;;;5058798;28;20048;-80
2022/09/16 09:06:00;;;;;;;10.63;1.40;;;;;;;;;;5054648;28;20069;-80
2022/09/16 09:08:29;;;;;;;2.38;0.90;;;;;;;;;;5055831;28;20633;-80
2022/09/16 09:11:05;;;;;;;4.25;1.10;;;;;;;;;;5056070;28;20049;-80
2022/09/16 09:13:31;;;;;;;;;;;;;;;;;;5056907;28;20053;-80
2022/09/16 09:16:16;;;;;;;2.28;0.80;;;;;;;;;;5069785;28;19920;-81
2022/09/16 09:18:48;;;;;;;4.90;0.90;;;;;;;;;;5068504;28;20108;-80
2022/09/16 09:21:17;;;;;;;4.90;1.05;;;;;;;;;;5057908;28;20128;-80
2022/09/16 09:23:49;;;;;;;4.47;1.33;;;;;;;;;;5058014;28;20148;-80
2022/09/16 09:26:21;;;;;;;8.43;1.05;;;;;;;;;;5057513;28;20041;-81
2022/09/16 09:28:56;;;;;;;9.10;1.92;;;;;;;;;;5057416;28;20099;-82
2022/09/16 09:31:23;;;;;;;;;;;;;;;;;;5059474;28;20080;-81
2022/09/16 09:33:49;;;;;;;1.98;0.80;;;;;;;;;;5056877;28;19943;-81
2022/09/16 09:36:34;;;;;;;3.25;0.90;;;;;;;;;;5056537;28;20055;-82
2022/09/16 09:39:16;;;;;;;2.30;0.90;;;;;;;;;;5056233;28;20497;-81
2022/09/16 09:41:46;;;;;;;4.53;0.90;;;;;;;;;;5056891;28;20525;-81
2022/09/16 09:44:31;;;;;;;5.30;1.00;;;;;;;;;;5056401;28;20049;-83
2022/09/16 09:47:00;;;;;;;4.50;0.90;;;;;;;;;;5056876;28;20053;-81
2022/09/16 09:49:32;;;;;;;4.80;1.00;;;;;;;;;;5052530;28;20528;-81
2022/09/16 09:52:18;;;;;;;1.95;1.00;;;;;;;;;;5056551;28;20048;-82
2022/09/16 09:54:48;;;;;;;5.32;1.08;;;;;;;;;;5057261;28;20050;-80
2022/09/16 09:57:35;;;;;;;8.40;1.00;;;;;;;;;;5056089;28;20670;-81
2022/09/16 10:00:14;;;;;;;6.80;1.15;;;;;;;;;;5055747;28;20148;-81
2022/09/16 10:02:42;;;;;;;6.70;1.20;;;;;;;;;;5052872;28;20045;-82
2022/09/16 10:05:14;;;;;;;2.20;0.95;;;;;;;;;;5055792;28;20076;-83
2022/09/16 10:07:41;;;;;;;4.25;1.08;;;;;;;;;;5055930;28;20554;-82
2022/09/16 10:10:15;;;;;;;3.22;1.25;;;;;;;;;;5055422;28;20080;-80
2022/09/16 10:12:41;;;;;;;3.08;0.80;;;;;;;;;;5046154;28;20045;-81
2022/09/16 10:15:22;;;;;;;4.07;1.10;;;;;;;;;;5049652;28;20571;-80
2022/09/16 10:17:50;;;;;;;3.30;0.82;;;;;;;;;;5054100;28;20049;-81
2022/09/16 10:20:32;;;;;;;4.38;0.90;;;;;;;;;;5053786;28;20057;-81
2022/09/16 10:23:04;;;;;;;3.75;0.80;;;;;;;;;;5054012;28;20109;-81
2022/09/16 10:25:32;;;;;;;6.53;0.90;;;;;;;;;;5055254;28;20049;-81
2022/09/16 10:28:00;;;;;;;3.45;0.80;;;;;;;;;;5045165;28;20091;-80
2022/09/16 10:30:28;;;;;;;4.90;0.98;;;;;;;;;;5048680;28;20076;-80
2022/09/16 10:32:56;;;;;;;3.42;0.70;;;;;;;;;;5054139;28;20120;-81
2022/09/16 10:35:26;;;;;;;2.20;0.60;;;;;;;;;;5053659;28;20112;-81
2022/09/16 10:37:52;;;;;;;3.53;0.60;;;;;;;;;;5057786;28;20068;-80
2022/09/16 10:40:21;;;;;;;3.33;1.05;;;;;;;;;;5058808;28;20134;-82
2022/09/16 10:42:52;;;;;;;1.73;0.60;;;;;;;;;;5055280;28;20045;-80
2022/09/16 10:45:26;;;;;;;6.50;0.60;;;;;;;;;;5055999;28;20063;-82
2022/09/16 10:47:54;;;;;;;3.25;0.60;;;;;;;;;;5055167;28;20427;-83
2022/09/16 10:50:20;;;;;;;2.30;0.75;;;;;;;;;;5054414;28;20080;-81
2022/09/16 10:52:48;;;;;;;2.13;0.73;;;;;;;;;;5057658;28;20477;-82
2022/09/16 10:55:22;;;;;;;3.10;1.13;;;;;;;;;;5057021;28;20107;-81
2022/09/16 10:57:49;;;;;;;4.35;0.95;;;;;;;;;;5053647;28;20053;-82
2022/09/16 11:00:19;;;;;;;3.40;1.00;;;;;;;;;;5053179;28;20080;-81
2022/09/16 11:02:49;;;;;;;2.85;1.30;;;;;;;;;;5055356;28;20061;-79
2022/09/16 11:05:21;;;;;;;2.75;1.00;;;;;;;;;;5054160;28;20088;-81
2022/09/16 11:07:51;;;;;;;4.05;0.80;;;;;;;;;;5054251;28;20041;-79
2022/09/16 11:10:36;;;;;;;5.32;0.93;;;;;;;;;;5053835;28;20698;-80
2022/09/16 11:13:22;;;;;;;2.75;1.00;;;;;;;;;;5053947;28;20083;-81
2022/09/16 11:16:07;;;;;;;2.10;0.70;;;;;;;;;;5056203;28;20103;-80
2022/09/16 11:18:44;;;;;;;4.78;0.88;;;;;;;;;;5051575;28;20520;-82
2022/09/16 11:21:17;;;;;;;2.97;0.98;;;;;;;;;;5056101;28;20176;-80
2022/09/16 11:23:56;;;;;;;2.50;0.80;;;;;;;;;;5056285;28;20053;-83
2022/09/16 11:26:38;;;;;;;5.40;1.00;;;;;;;;;;5055462;28;20045;-80
2022/09/16 11:29:33;;;;;;;4.90;0.88;;;;;;;;;;5059339;28;20059;-82
2022/09/16 11:32:22;;;;;;;2.38;0.75;;;;;;;;;;5061328;28;20490;-81
2022/09/16 11:35:27;;;;;;;5.32;0.80;;;;;;;;;;5060016;28;20049;-81
2022/09/16 11:37:57;;;;;;;2.63;0.80;;;;;;;;;;5017803;28;20052;-82
2022/09/16 11:40:45;;;;;;;3.28;0.63;;;;;;;;;;5017484;28;20088;-82
2022/09/16 11:43:32;;;;;;;3.55;1.00;;;;;;;;;;5047441;28;20057;-80
2022/09/16 11:45:58;;;;;;;6.53;1.27;;;;;;;;;;5060705;28;20080;-80
2022/09/16 11:48:50;;;;;;;1.70;0.82;;;;;;;;;;5059188;28;20055;-81
2022/09/16 11:51:23;;;;;;;5.50;0.90;;;;;;;;;;5062413;28;20049;-81
2022/09/16 11:54:08;;;;;;;2.00;0.70;;;;;;;;;;5062531;28;20052;-79
2022/09/16 11:56:43;;;;;;;2.75;0.38;;;;;;;;;;5060791;28;20052;-83
2022/09/16 11:59:13;;;;;;;1.73;0.68;;;;;;;;;;5064336;28;20044;-80
2022/09/16 12:01:44;;;;;;;4.93;0.57;;;;;;;;;;5061113;28;20045;-81
2022/09/16 12:04:14;;;;;;;4.10;0.70;;;;;;;;;;5061555;28;20072;-82
2022/09/16 12:06:52;;;;;;;1.33;0.60;;;;;;;;;;5057352;28;20079;-81
2022/09/16 12:09:24;;;;;;;3.17;1.08;;;;;;;;;;5059455;28;20056;-80
2022/09/16 12:11:53;;;;;;;1.40;0.52;;;;;;;;;;5058948;28;20049;-81
2022/09/16 12:14:23;;;;;;;1.13;0.50;;;;;;;;;;5057185;28;20414;-80
2022/09/16 12:16:53;;;;;;;0.93;0.40;;;;;;;;;;5060367;28;20049;-82
2022/09/16 12:19:28;;;;;;;1.08;0.45;;;;;;;;;;5056740;28;20477;-81
2022/09/16 12:22:00;;;;;;;1.20;0.40;;;;;;;;;;5058501;28;20068;-80
2022/09/16 12:24:39;;;;;;;1.08;0.30;;;;;;;;;;5058972;28;20199;-80
2022/09/16 12:27:24;;;;;;;0.40;0.40;;;;;;;;;;5055591;28;20144;-82
2022/09/16 12:30:00;;;;;;;1.05;0.38;;;;;;;;;;5058616;28;20060;-81
2022/09/16 12:32:37;;;;;;;1.02;0.40;;;;;;;;;;5063785;28;20061;-80
2022/09/16 12:35:11;;;;;;;1.10;0.45;;;;;;;;;;5071827;28;20049;-83
2022/09/16 12:37:41;;;;;;;1.15;0.60;;;;;;;;;;5067551;28;20052;-80
2022/09/16 12:40:14;;;;;;;0.98;0.40;;;;;;;;;;5060454;28;20049;-80
2022/09/16 12:42:59;;;;;;;0.95;0.40;;;;;;;;;;5060042;28;20092;-81
2022/09/16 12:45:40;;;;;;;1.52;0.55;;;;;;;;;;5059189;28;20056;-80
2022/09/16 12:48:07;;;;;;;2.58;0.52;;;;;;;;;;5056483;28;20053;-82
2022/09/16 12:50:46;;;;;;;4.53;0.55;;;;;;;;;;5059093;28;20079;-82
2022/09/16 12:53:31;;;;;;;1.67;0.77;;;;;;;;;;5052983;28;20049;-81
2022/09/16 12:55:58;;;;;;;1.65;0.55;;;;;;;;;;5054178;28;20099;-80
2022/09/16 12:58:27;;;;;;;1.67;0.47;;;;;;;;;;5053125;28;20063;-80
2022/09/16 13:00:57;;;;;;;2.85;0.40;;;;;;;;;;5056736;28;20076;-81
2022/09/16 13:03:26;;;;;;;2.25;0.60;;;;;;;;;;5054915;28;20104;-82
2022/09/16 13:05:54;;;;;;;2.50;0.60;;;;;;;;;;5059759;28;20065;-80
2022/09/16 13:08:31;;;;;;;0.85;0.40;;;;;;;;;;5058112;28;20081;-80
2022/09/16 13:11:03;;;;;;;2.55;0.60;;;;;;;;;;5058533;28;20076;-80
2022/09/16 13:13:52;;;;;;;3.08;0.52;;;;;;;;;;5058658;28;20255;-82
2022/09/16 13:16:26;;;;;;;1.73;0.77;;;;;;;;;;5062710;28;20090;-80
2022/09/16 13:19:04;;;;;;;1.92;0.60;;;;;;;;;;5052383;28;20041;-80
2022/09/16 13:21:38;;;;;;;1.70;0.50;;;;;;;;;;5059373;28;20572;-81
2022/09/16 13:24:11;;;;;;;1.77;0.50;;;;;;;;;;5063683;28;20057;-80
2022/09/16 13:26:42;;;;;;;3.35;0.80;;;;;;;;;;5064176;28;20052;-81
2022/09/16 13:29:24;;;;;;;3.85;0.63;;;;;;;;;;5062969;28;20068;-79
2022/09/16 13:31:51;;;;;;;1.48;0.50;;;;;;;;;;5056788;28;20045;-82
2022/09/16 13:34:18;;;;;;;1.05;0.60;;;;;;;;;;5061297;28;20049;-80
2022/09/16 13:36:44;;;;;;;2.60;0.68;;;;;;;;;;5061087;28;20229;-80
2022/09/16 13:39:12;;;;;;;1.35;0.52;;;;;;;;;;5060329;28;20110;-79
2022/09/16 13:41:44;;;;;;;2.63;0.60;;;;;;;;;;5061102;28;20053;-81
2022/09/16 13:44:29;;;;;;;1.63;0.65;;;;;;;;;;5059329;28;20117;-79
2022/09/16 13:47:08;;;;;;;3.57;1.00;;;;;;;;;;5060398;28;20113;-81
2022/09/16 13:49:40;;;;;;;2.53;0.68;;;;;;;;;;5050557;28;20373;-81
2022/09/16 13:52:11;;;;;;;4.43;0.68;;;;;;;;;;5049784;28;20064;-80
2022/09/16 13:54:42;;;;;;;3.80;0.70;;;;;;;;;;5049009;28;20493;-80
2022/09/16 13:57:28;;;;;;;3.85;0.70;;;;;;;;;;5053007;28;20053;-81
2022/09/16 13:59:54;;;;;;;2.60;0.50;;;;;;;;;;5054199;28;20120;-79
2022/09/16 14:02:29;;;;;;;2.97;0.63;;;;;;;;;;5055884;28;20158;-81
2022/09/16 14:05:35;;;;;;;3.17;0.68;;;;;;;;;;5050911;28;20074;-81
2022/09/16 14:08:01;;;;;;;3.17;0.70;;;;;;;;;;5016074;28;20126;-80
2022/09/16 14:10:46;;;;;;;6.85;0.65;;;;;;;;;;4991440;28;20295;-80
2022/09/16 14:13:17;;;;;;;2.17;0.60;;;;;;;;;;5043161;28;20099;-80
2022/09/16 14:15:48;;;;;;;3.90;0.50;;;;;;;;;;5051585;28;20322;-82
2022/09/16 14:18:16;;;;;;;1.98;0.60;;;;;;;;;;5062522;28;20057;-82
2022/09/16 14:21:12;;;;;;;5.35;0.50;;;;;;;;;;5060747;28;20139;-79
2022/09/16 14:23:39;;;;;;;2.45;0.60;;;;;;;;;;5031099;28;20057;-77
2022/09/16 14:26:19;;;;;;;1.60;0.40;;;;;;;;;;5054584;28;20108;-77
2022/09/16 14:28:45;;;;;;;1.65;0.70;;;;;;;;;;5052402;28;20045;-77
2022/09/16 14:31:14;;;;;;;1.73;0.57;;;;;;;;;;5059502;28;20537;-81
2022/09/16 14:33:43;;;;;;;1.63;0.50;;;;;;;;;;5063228;28;20044;-80
2022/09/16 14:36:12;;;;;;;1.42;0.50;;;;;;;;;;5064561;28;20442;-80
2022/09/16 14:38:52;;;;;;;2.45;0.50;;;;;;;;;;5060000;28;20264;-82
2022/09/16 14:41:22;;;;;;;3.83;0.80;;;;;;;;;;5061524;28;20521;-80
2022/09/16 14:43:49;;;;;;;2.00;0.45;;;;;;;;;;5064227;28;20052;-80
2022/09/16 14:46:16;;;;;;;1.25;0.60;;;;;;;;;;5064053;28;20045;-81
2022/09/16 14:48:42;;;;;;;2.38;0.98;;;;;;;;;;5062756;28;20077;-80
2022/09/16 14:51:15;;;;;;;2.05;0.63;;;;;;;;;;5065218;28;20059;-82
2022/09/16 14:53:41;;;;;;;1.73;0.90;;;;;;;;;;5066111;28;20087;-80
2022/09/16 14:56:28;;;;;;;1.60;0.60;;;;;;;;;;5065995;28;20536;-81
2022/09/16 14:58:56;;;;;;;2.42;0.50;;;;;;;;;;5065204;28;20064;-81
2022/09/16 15:01:26;;;;;;;1.30;0.50;;;;;;;;;;5067370;28;20079;-82
2022/09/16 15:03:53;;;;;;;5.40;0.60;;;;;;;;;;5063541;28;20261;-82
2022/09/16 15:06:21;;;;;;;1.33;0.50;;;;;;;;;;5064811;28;20549;-82